Berta — V2BQ6 — position and weather

sailwx.info

Track history (hours):
 
Tides and Currents Weather Stations Pressure Air Temp Water Temp Dewpoint Dewpoint Depression Visibility Wind Speed Wind Dir Waves Ship Positions

Berta

Last reported at 2018-Jan-19 03:00 UTC. Time now 2018-Jan-19 03:52 UTC.
Position N 37°58' E 024°39'.

Length 118 m; draft 6.1 m.

Type: Cargo ship. MMSI: 304586000.

Date/timePositionNaut miles runAvg speedWind from/ knotsBaromVisibWave heightAir tempDewpointWater temp
2018-Jan-19 03:00N 37°58' E 024°39'510.5
2018-Jan-19 02:30N 37°53' E 024°36'510.4
2018-Jan-19 02:00N 37°48' E 024°34'510.3
2018-Jan-19 01:30N 37°44' E 024°31'510.7
2018-Jan-19 01:00N 37°39' E 024°28'510.7
2018-Jan-19 00:30N 37°34' E 024°25'510.8
2018-Jan-19 00:00N 37°30' E 024°21'511.0
2018-Jan-18 23:30N 37°25' E 024°17'510.9
2018-Jan-18 23:00N 37°21' E 024°13'510.8
2018-Jan-18 22:30N 37°17' E 024°09'510.5
2018-Jan-18 22:00N 37°12' E 024°05'510.1
2018-Jan-18 21:30N 37°08' E 024°01'510.2
2018-Jan-18 21:00N 37°04' E 023°58'510.1
2018-Jan-18 20:30N 36°60' E 023°54'510.1
2018-Jan-18 20:00N 36°56' E 023°50'610.4
2018-Jan-18 19:28N 36°51' E 023°46'1610.4
2018-Jan-18 17:57N 36°39' E 023°33'  
Track history (hours):
 
Tides and Currents Weather Stations Pressure Air Temp Water Temp Dewpoint Dewpoint Depression Visibility Wind Speed Wind Dir Waves Ship Positions

Berta

Last reported at 2018-Jan-19 03:00 UTC. Time now 2018-Jan-19 03:52 UTC.
Position N 37°58' E 024°39'.

Length 118 m; draft 6.1 m.

Type: Cargo ship. MMSI: 304586000.

Date/timePositionNaut miles runAvg speedWind from/ knotsBaromVisibWave heightAir tempDewpointWater temp
2018-Jan-19 03:00N 37°58' E 024°39'510.5
2018-Jan-19 02:30N 37°53' E 024°36'510.4
2018-Jan-19 02:00N 37°48' E 024°34'510.3
2018-Jan-19 01:30N 37°44' E 024°31'510.7
2018-Jan-19 01:00N 37°39' E 024°28'510.7
2018-Jan-19 00:30N 37°34' E 024°25'510.8
2018-Jan-19 00:00N 37°30' E 024°21'511.0
2018-Jan-18 23:30N 37°25' E 024°17'510.9
2018-Jan-18 23:00N 37°21' E 024°13'510.8
2018-Jan-18 22:30N 37°17' E 024°09'510.5
2018-Jan-18 22:00N 37°12' E 024°05'510.1
2018-Jan-18 21:30N 37°08' E 024°01'510.2
2018-Jan-18 21:00N 37°04' E 023°58'510.1
2018-Jan-18 20:30N 36°60' E 023°54'510.1
2018-Jan-18 20:00N 36°56' E 023°50'610.4
2018-Jan-18 19:28N 36°51' E 023°46'1610.4
2018-Jan-18 17:57N 36°39' E 023°33'  

Dump ship's entire track history